Time;durP1;ratioP1;P1;durP2;ratioP2;P2;SDS_P1;SDS_P2;PMS_P1;PMS_P2;Temp;Humidity;BMP_temperature;BMP_pressure;BME280_temperature;BME280_humidity;BME280_pressure;Samples;Min_cycle;Max_cycle;Signal;HPM_P1;HPM_P2
2023/09/01 00:00:29;;;;;;;;;;;21.20;71.90;;;;;;5050860;28;1280;-66
2023/09/01 00:02:54;;;;;;;;;;;21.20;71.90;;;;;;5050558;28;836;-66
2023/09/01 00:05:20;;;;;;;;;;;21.20;71.90;;;;;;5050454;28;875;-67
2023/09/01 00:07:45;;;;;;;;;;;21.20;71.90;;;;;;5050077;28;1010;-67
2023/09/01 00:10:11;;;;;;;;;;;21.20;71.90;;;;;;5049165;28;1217;-66
2023/09/01 00:12:36;;;;;;;;;;;21.20;71.90;;;;;;5049630;28;874;-66
2023/09/01 00:15:03;;;;;;;;;;;21.20;71.90;;;;;;5051055;28;988;-66
2023/09/01 00:17:28;;;;;;;;;;;21.20;71.90;;;;;;5043910;28;1921;-66
2023/09/01 00:19:53;;;;;;;;;;;21.20;71.90;;;;;;5048757;28;1398;-66
2023/09/01 00:22:19;;;;;;;;;;;21.20;71.90;;;;;;5050681;28;926;-66
2023/09/01 00:24:44;;;;;;;;;;;21.20;72.00;;;;;;5050894;28;1022;-66
2023/09/01 00:27:10;;;;;;;;;;;21.20;72.00;;;;;;5047966;28;876;-67
2023/09/01 00:29:36;;;;;;;;;;;21.20;72.00;;;;;;5047952;28;1288;-67
2023/09/01 00:32:02;;;;;;;;;;;21.20;72.00;;;;;;5048158;28;1073;-66
2023/09/01 00:34:29;;;;;;;;;;;21.20;72.00;;;;;;5050299;28;1010;-67
2023/09/01 00:36:54;;;;;;;;;;;21.20;72.00;;;;;;5042742;28;1984;-67
2023/09/01 00:39:20;;;;;;;;;;;21.20;72.00;;;;;;5049353;28;871;-67
2023/09/01 00:41:45;;;;;;;;;;;21.20;72.00;;;;;;5050572;28;1268;-66
2023/09/01 00:44:14;;;;;;;;;;;21.20;72.00;;;;;;5049523;28;768;-66
2023/09/01 00:46:39;;;;;;;;;;;21.20;72.00;;;;;;5049403;28;1523;-67
2023/09/01 00:49:05;;;;;;;;;;;21.20;72.00;;;;;;5045268;28;2092;-66
2023/09/01 00:51:30;;;;;;;;;;;21.20;72.00;;;;;;5047208;28;1392;-67
2023/09/01 00:53:56;;;;;;;;;;;21.20;72.10;;;;;;5049164;28;1362;-66
2023/09/01 00:56:21;;;;;;;;;;;21.20;72.00;;;;;;5048428;28;1528;-68
2023/09/01 00:58:47;;;;;;;;;;;21.20;72.00;;;;;;5046049;28;1902;-66
2023/09/01 01:01:12;;;;;;;;;;;21.20;72.10;;;;;;5051839;28;1567;-68
2023/09/01 01:03:38;;;;;;;;;;;21.20;72.00;;;;;;5052659;28;1395;-67
2023/09/01 01:06:26;;;;;;;;;;;21.20;72.00;;;;;;5047701;28;1541;-67
2023/09/01 01:09:11;;;;;;;;;;;21.20;72.00;;;;;;5047997;28;1351;-67
2023/09/01 01:11:48;;;;;;;;;;;21.20;72.00;;;;;;5046958;28;1216;-67
2023/09/01 01:14:25;;;;;;;;;;;21.20;72.10;;;;;;5047825;28;907;-67
2023/09/01 01:16:51;;;;;;;;;;;21.20;72.00;;;;;;5052697;28;1910;-68
2023/09/01 01:19:25;;;;;;;;;;;21.20;72.00;;;;;;5041783;28;844;-68
2023/09/01 01:21:51;;;;;;;;;;;21.20;72.00;;;;;;5052263;28;1327;-67
2023/09/01 01:24:16;;;;;;;;;;;21.20;72.00;;;;;;5045455;28;908;-67
2023/09/01 01:26:42;;;;;;;;;;;21.20;72.10;;;;;;5045229;28;879;-67
2023/09/01 01:29:07;;;;;;;;;;;21.20;72.00;;;;;;5051934;28;1299;-68
2023/09/01 01:31:33;;;;;;;;;;;21.20;72.00;;;;;;5052230;28;1267;-67
2023/09/01 01:34:07;;;;;;;;;;;21.20;72.10;;;;;;5051769;28;871;-68
2023/09/01 01:36:59;;;;;;;;;;;21.20;72.10;;;;;;5046292;28;1987;-67
2023/09/01 01:39:25;;;;;;;;;;;21.20;72.10;;;;;;5042394;28;1705;-68
2023/09/01 01:41:54;;;;;;;;;;;21.20;72.10;;;;;;5051973;28;1240;-68
2023/09/01 01:44:39;;;;;;;;;;;21.20;72.10;;;;;;5051961;28;1116;-68
2023/09/01 01:47:05;;;;;;;;;;;21.20;72.10;;;;;;5050727;28;963;-66
2023/09/01 01:49:30;;;;;;;;;;;21.20;72.10;;;;;;5046346;28;1369;-67
2023/09/01 01:51:57;;;;;;;;;;;21.20;72.10;;;;;;5050911;28;801;-67
2023/09/01 01:54:22;;;;;;;;;;;21.20;72.10;;;;;;5052511;28;959;-66
2023/09/01 01:56:49;;;;;;;;;;;21.20;72.10;;;;;;5052688;28;1906;-67
2023/09/01 01:59:14;;;;;;;;;;;21.20;72.10;;;;;;5051150;28;914;-67
2023/09/01 02:01:40;;;;;;;;;;;21.20;72.10;;;;;;5052825;28;1284;-67
2023/09/01 02:04:05;;;;;;;;;;;21.20;72.10;;;;;;5053298;28;784;-67
2023/09/01 02:06:31;;;;;;;;;;;21.20;72.10;;;;;;5052173;28;883;-66
2023/09/01 02:08:57;;;;;;;;;;;21.20;72.10;;;;;;5051242;28;807;-66
2023/09/01 02:11:22;;;;;;;;;;;21.20;72.10;;;;;;5051807;28;1269;-67
2023/09/01 02:13:48;;;;;;;;;;;21.20;72.10;;;;;;5051652;28;903;-67
2023/09/01 02:16:14;;;;;;;;;;;21.20;72.10;;;;;;5051323;28;839;-68
2023/09/01 02:18:39;;;;;;;;;;;21.20;72.10;;;;;;5050987;28;1964;-68
2023/09/01 02:21:05;;;;;;;;;;;21.20;72.10;;;;;;5051950;28;1342;-67
2023/09/01 02:23:30;;;;;;;;;;;21.20;72.10;;;;;;5051901;28;938;-67
2023/09/01 02:25:56;;;;;;;;;;;21.20;72.10;;;;;;5052504;28;859;-66
2023/09/01 02:28:21;;;;;;;;;;;21.20;72.10;;;;;;5051618;28;848;-67
2023/09/01 02:30:46;;;;;;;;;;;21.20;72.10;;;;;;5047990;28;1380;-67
2023/09/01 02:33:12;;;;;;;;;;;21.20;72.10;;;;;;5051825;28;872;-67
2023/09/01 02:35:41;;;;;;;;;;;21.10;72.10;;;;;;5051289;28;1170;-67
2023/09/01 02:38:07;;;;;;;;;;;21.20;72.20;;;;;;5049544;28;1965;-67
2023/09/01 02:40:32;;;;;;;;;;;21.10;72.10;;;;;;5043697;28;1367;-67
2023/09/01 02:42:58;;;;;;;;;;;21.20;72.20;;;;;;5051019;28;1021;-67
2023/09/01 02:45:23;;;;;;;;;;;21.20;72.10;;;;;;5051499;28;808;-67
2023/09/01 02:47:49;;;;;;;;;;;21.10;72.10;;;;;;5051481;28;831;-67
2023/09/01 02:50:14;;;;;;;;;;;21.20;72.20;;;;;;5051811;28;1272;-68
2023/09/01 02:52:40;;;;;;;;;;;21.10;72.10;;;;;;5046181;28;959;-67
2023/09/01 02:55:06;;;;;;;;;;;21.20;72.20;;;;;;5051598;28;846;-67
2023/09/01 02:57:32;;;;;;;;;;;21.20;72.20;;;;;;5051439;28;1973;-68
2023/09/01 02:59:57;;;;;;;;;;;21.10;72.10;;;;;;5050453;28;1315;-68
2023/09/01 03:02:23;;;;;;;;;;;21.20;72.20;;;;;;5050797;28;839;-68
2023/09/01 03:04:49;;;;;;;;;;;21.10;72.10;;;;;;5050870;28;1271;-68
2023/09/01 03:07:14;;;;;;;;;;;21.20;72.20;;;;;;5051200;28;1287;-68
2023/09/01 03:09:40;;;;;;;;;;;21.10;72.10;;;;;;5050185;28;1338;-67
2023/09/01 03:12:05;;;;;;;;;;;21.10;72.20;;;;;;5050223;28;1056;-67
2023/09/01 03:14:31;;;;;;;;;;;21.20;72.20;;;;;;5050415;28;859;-67
2023/09/01 03:16:56;;;;;;;;;;;21.20;72.30;;;;;;5050597;28;1973;-67
2023/09/01 03:19:22;;;;;;;;;;;21.20;72.20;;;;;;5048991;28;934;-67
2023/09/01 03:21:47;;;;;;;;;;;21.20;72.20;;;;;;5049618;28;1185;-67
2023/09/01 03:24:13;;;;;;;;;;;21.10;72.20;;;;;;5051573;28;1267;-67
2023/09/01 03:26:38;;;;;;;;;;;21.20;72.30;;;;;;5052031;28;894;-67
2023/09/01 03:29:04;;;;;;;;;;;21.20;72.20;;;;;;5048797;28;1051;-67
2023/09/01 03:31:31;;;;;;;;;;;21.10;72.20;;;;;;5051040;28;1287;-67
2023/09/01 03:33:57;;;;;;;;;;;21.20;72.20;;;;;;5050832;28;883;-67
2023/09/01 03:36:22;;;;;;;;;;;21.20;72.20;;;;;;5043754;28;872;-67
2023/09/01 03:38:48;;;;;;;;;;;21.10;72.20;;;;;;5050167;28;1948;-66
2023/09/01 03:41:13;;;;;;;;;;;21.20;72.20;;;;;;5050032;28;1282;-67
2023/09/01 03:43:38;;;;;;;;;;;21.10;72.20;;;;;;5050388;28;1105;-67
2023/09/01 03:46:04;;;;;;;;;;;21.10;72.20;;;;;;5045102;28;824;-67
2023/09/01 03:48:30;;;;;;;;;;;21.10;72.20;;;;;;5043792;28;955;-67
2023/09/01 03:51:05;;;;;;;;;;;21.20;72.20;;;;;;5045167;28;1382;-67
2023/09/01 03:53:31;;;;;;;;;;;21.20;72.30;;;;;;5049248;28;804;-67
2023/09/01 03:55:57;;;;;;;;;;;21.20;72.30;;;;;;5049983;28;800;-67
2023/09/01 03:58:22;;;;;;;;;;;21.10;72.20;;;;;;5049048;28;1959;-67
2023/09/01 04:00:47;;;;;;;;;;;21.10;72.20;;;;;;5055848;28;1289;-67
2023/09/01 04:03:13;;;;;;;;;;;21.10;72.20;;;;;;5050158;28;914;-67
2023/09/01 04:05:38;;;;;;;;;;;21.10;72.20;;;;;;5050336;28;1038;-67
2023/09/01 04:08:04;;;;;;;;;;;21.10;72.20;;;;;;5049614;28;987;-67
2023/09/01 04:10:29;;;;;;;;;;;21.10;72.20;;;;;;5050384;28;1326;-67
2023/09/01 04:12:55;;;;;;;;;;;21.10;72.20;;;;;;5049946;28;835;-67
2023/09/01 04:15:20;;;;;;;;;;;21.10;72.20;;;;;;5050495;28;957;-67
2023/09/01 04:17:46;;;;;;;;;;;21.10;72.20;;;;;;5048897;28;1914;-68
2023/09/01 04:20:11;;;;;;;;;;;21.10;72.20;;;;;;5046797;28;1967;-67
2023/09/01 04:22:37;;;;;;;;;;;21.10;72.20;;;;;;5048067;28;1922;-67
2023/09/01 04:25:02;;;;;;;;;;;21.10;72.20;;;;;;5048945;28;1290;-66
2023/09/01 04:27:28;;;;;;;;;;;21.10;72.20;;;;;;5049578;28;1358;-66
2023/09/01 04:29:54;;;;;;;;;;;21.10;72.30;;;;;;5038840;28;1604;-67
2023/09/01 04:32:19;;;;;;;;;;;21.10;72.30;;;;;;5048320;28;1378;-66
2023/09/01 04:34:45;;;;;;;;;;;21.10;72.20;;;;;;5052357;28;1026;-66
2023/09/01 04:37:10;;;;;;;;;;;21.10;72.30;;;;;;5052631;28;1922;-66
2023/09/01 04:39:36;;;;;;;;;;;21.10;72.30;;;;;;5052093;28;1350;-66
2023/09/01 04:42:01;;;;;;;;;;;21.10;72.30;;;;;;5052909;28;923;-66
2023/09/01 04:44:27;;;;;;;;;;;21.20;72.30;;;;;;5053350;28;958;-65
2023/09/01 04:46:52;;;;;;;;;;;21.10;72.20;;;;;;5050349;28;1195;-67
2023/09/01 04:49:17;;;;;;;;;;;21.10;72.30;;;;;;5052211;28;823;-65
2023/09/01 04:51:43;;;;;;;;;;;21.10;72.30;;;;;;5045907;28;1281;-66
2023/09/01 04:54:08;;;;;;;;;;;21.10;72.30;;;;;;5052144;28;962;-67
2023/09/01 04:56:34;;;;;;;;;;;21.10;72.30;;;;;;5052343;28;795;-66
2023/09/01 04:58:59;;;;;;;;;;;21.10;72.30;;;;;;5050819;28;1890;-67
2023/09/01 05:01:25;;;;;;;;;;;21.10;72.30;;;;;;5051352;28;1306;-68
2023/09/01 05:03:50;;;;;;;;;;;21.10;72.30;;;;;;5051664;28;805;-67
2023/09/01 05:06:16;;;;;;;;;;;21.10;72.30;;;;;;5052002;28;871;-67
2023/09/01 05:08:41;;;;;;;;;;;21.10;72.30;;;;;;5051131;28;997;-67
2023/09/01 05:11:07;;;;;;;;;;;21.10;72.30;;;;;;5052099;28;1274;-67
2023/09/01 05:13:33;;;;;;;;;;;21.10;72.30;;;;;;5052443;28;876;-66
2023/09/01 05:15:58;;;;;;;;;;;21.10;72.30;;;;;;5051189;28;832;-66
2023/09/01 05:18:24;;;;;;;;;;;21.10;72.30;;;;;;5044630;28;1906;-66
2023/09/01 05:20:49;;;;;;;;;;;21.10;72.30;;;;;;5052146;28;1321;-67
2023/09/01 05:23:15;;;;;;;;;;;21.10;72.30;;;;;;5052631;28;1230;-66
2023/09/01 05:25:40;;;;;;;;;;;21.10;72.30;;;;;;5052215;28;922;-66
2023/09/01 05:28:06;;;;;;;;;;;21.10;72.30;;;;;;5051922;28;1252;-67
2023/09/01 05:30:31;;;;;;;;;;;21.10;72.30;;;;;;5051375;28;1381;-68
2023/09/01 05:32:57;;;;;;;;;;;21.10;72.30;;;;;;5044111;28;859;-66
2023/09/01 05:35:22;;;;;;;;;;;21.10;72.30;;;;;;5052170;28;817;-66
2023/09/01 05:37:48;;;;;;;;;;;21.10;72.30;;;;;;5051424;28;1913;-66
2023/09/01 05:40:13;;;;;;;;;;;21.10;72.30;;;;;;5043973;28;1337;-67
2023/09/01 05:42:39;;;;;;;;;;;21.10;72.30;;;;;;5052105;28;821;-67
2023/09/01 05:45:04;;;;;;;;;;;21.10;72.30;;;;;;5051879;28;867;-66
2023/09/01 05:47:30;;;;;;;;;;;21.10;72.30;;;;;;5052158;28;1133;-67
2023/09/01 05:49:55;;;;;;;;;;;21.10;72.40;;;;;;5051058;28;1350;-67
2023/09/01 05:52:21;;;;;;;;;;;21.10;72.40;;;;;;5051860;28;859;-67
2023/09/01 05:54:46;;;;;;;;;;;21.10;72.30;;;;;;5052500;28;1414;-67
2023/09/01 05:57:12;;;;;;;;;;;21.10;72.30;;;;;;5052139;28;1906;-66
2023/09/01 05:59:37;;;;;;;;;;;21.10;72.20;;;;;;5051015;28;1201;-66
2023/09/01 06:02:02;;;;;;;;;;;21.10;72.30;;;;;;5051619;28;1047;-66
2023/09/01 06:04:28;;;;;;;;;;;21.10;71.50;;;;;;5056290;28;1155;-65
2023/09/01 06:06:54;;;;;;;;;;;21.10;71.00;;;;;;5050635;28;1057;-65
2023/09/01 06:09:20;;;;;;;;;;;21.10;70.80;;;;;;5050697;28;943;-66
2023/09/01 06:11:45;;;;;;;;;;;21.10;69.90;;;;;;5051423;28;1398;-66
2023/09/01 06:14:11;;;;;;;;;;;21.10;69.90;;;;;;5051460;28;868;-66
2023/09/01 06:16:36;;;;;;;;;;;21.10;69.40;;;;;;5051527;28;882;-66
2023/09/01 06:19:02;;;;;;;;;;;21.10;68.90;;;;;;5050783;28;1902;-65
2023/09/01 06:21:28;;;;;;;;;;;21.10;69.00;;;;;;5051546;28;1239;-66
2023/09/01 06:23:54;;;;;;;;;;;21.10;68.90;;;;;;5051771;28;867;-66
2023/09/01 06:26:19;;;;;;;;;;;21.10;68.40;;;;;;5051367;28;879;-66
2023/09/01 06:28:45;;;;;;;;;;;21.10;67.80;;;;;;5051523;28;1325;-64
2023/09/01 06:31:12;;;;;;;;;;;21.10;67.70;;;;;;5048485;28;1393;-65
2023/09/01 06:33:42;;;;;;;;;;;21.10;67.80;;;;;;5050215;28;847;-66
2023/09/01 06:36:12;;;;;;;;;;;21.10;67.70;;;;;;5051286;28;874;-66
2023/09/01 06:38:41;;;;;;;;;;;21.00;67.50;;;;;;5049983;28;1961;-66
2023/09/01 06:41:07;;;;;;;;;;;21.00;67.50;;;;;;5050530;28;1275;-65
2023/09/01 06:43:32;;;;;;;;;;;21.00;67.50;;;;;;5050908;28;1391;-66
2023/09/01 06:45:58;;;;;;;;;;;21.00;67.30;;;;;;5051115;28;851;-66
2023/09/01 06:48:23;;;;;;;;;;;21.00;67.30;;;;;;5049775;28;863;-66
2023/09/01 06:50:49;;;;;;;;;;;21.00;67.30;;;;;;5050878;28;1251;-66
2023/09/01 06:53:14;;;;;;;;;;;21.00;67.00;;;;;;5050679;28;829;-66
2023/09/01 06:55:40;;;;;;;;;;;21.00;66.70;;;;;;5050168;28;986;-65
2023/09/01 06:58:05;;;;;;;;;;;21.00;66.50;;;;;;5049906;28;1949;-65
2023/09/01 07:00:31;;;;;;;;;;;21.00;66.50;;;;;;5050811;28;1246;-65
2023/09/01 07:02:56;;;;;;;;;;;21.00;66.60;;;;;;5050970;28;1218;-65
2023/09/01 07:05:23;;;;;;;;;;;21.00;66.70;;;;;;5050789;28;869;-65
2023/09/01 07:07:50;;;;;;;;;;;21.00;66.20;;;;;;5049743;28;875;-66
2023/09/01 07:10:16;;;;;;;;;;;21.00;66.20;;;;;;5050127;28;1346;-66
2023/09/01 07:12:41;;;;;;;;;;;21.00;66.20;;;;;;5050001;28;871;-65
2023/09/01 07:15:08;;;;;;;;;;;20.90;66.20;;;;;;5050014;28;1057;-66
2023/09/01 07:17:33;;;;;;;;;;;21.00;66.20;;;;;;5050217;28;1906;-66
2023/09/01 07:19:58;;;;;;;;;;;21.00;66.20;;;;;;5049613;28;1296;-66
2023/09/01 07:22:24;;;;;;;;;;;20.90;65.80;;;;;;5050286;28;905;-65
2023/09/01 07:24:49;;;;;;;;;;;20.90;65.70;;;;;;5049071;28;812;-65
2023/09/01 07:27:15;;;;;;;;;;;20.90;65.50;;;;;;5041502;28;807;-65
2023/09/01 07:29:41;;;;;;;;;;;20.90;65.30;;;;;;5050201;28;1343;-65
2023/09/01 07:32:06;;;;;;;;;;;20.90;65.50;;;;;;5044973;28;1297;-66
2023/09/01 07:34:32;;;;;;;;;;;20.90;65.40;;;;;;5050352;28;812;-66
2023/09/01 07:36:58;;;;;;;;;;;20.90;65.20;;;;;;5044650;28;1902;-65
2023/09/01 07:39:23;;;;;;;;;;;20.90;65.20;;;;;;5049595;28;827;-65
2023/09/01 07:41:49;;;;;;;;;;;20.90;65.50;;;;;;5049913;28;1317;-65
2023/09/01 07:44:16;;;;;;;;;;;20.90;65.50;;;;;;5049860;28;994;-65
2023/09/01 07:46:42;;;;;;;;;;;20.90;65.10;;;;;;5050266;28;828;-65
2023/09/01 07:49:07;;;;;;;;;;;20.90;65.40;;;;;;5049478;28;832;-65
2023/09/01 07:51:33;;;;;;;;;;;20.90;65.20;;;;;;5049400;28;1254;-65
2023/09/01 07:53:59;;;;;;;;;;;20.90;65.40;;;;;;5050008;28;994;-65
2023/09/01 07:56:24;;;;;;;;;;;20.90;65.30;;;;;;5049743;28;787;-65
2023/09/01 07:58:50;;;;;;;;;;;20.90;65.50;;;;;;5049259;28;1902;-66
2023/09/01 08:01:15;;;;;;;;;;;20.90;65.60;;;;;;5050190;28;1369;-66
2023/09/01 08:03:40;;;;;;;;;;;20.90;65.40;;;;;;5050395;28;1204;-66
2023/09/01 08:06:06;;;;;;;;;;;20.90;65.20;;;;;;5048897;28;934;-65
2023/09/01 08:08:31;;;;;;;;;;;20.90;65.60;;;;;;5051919;28;792;-65
2023/09/01 08:10:57;;;;;;;;;;;20.90;65.60;;;;;;5052306;28;1262;-65
2023/09/01 08:13:22;;;;;;;;;;;20.90;65.50;;;;;;5054404;28;848;-65
2023/09/01 08:15:48;;;;;;;;;;;20.90;65.40;;;;;;5054781;28;935;-65
2023/09/01 08:18:14;;;;;;;;;;;20.90;65.40;;;;;;5054075;28;1973;-66
2023/09/01 08:20:40;;;;;;;;;;;20.90;65.20;;;;;;5052739;28;1272;-66
2023/09/01 08:23:05;;;;;;;;;;;20.90;65.40;;;;;;5054102;28;796;-66
2023/09/01 08:25:32;;;;;;;;;;;20.90;65.50;;;;;;5053817;28;876;-66
2023/09/01 08:27:58;;;;;;;;;;;20.90;65.70;;;;;;5053253;28;1274;-66
2023/09/01 08:30:23;;;;;;;;;;;20.90;65.60;;;;;;5056976;28;1282;-66
2023/09/01 08:32:49;;;;;;;;;;;20.90;65.30;;;;;;5053945;28;806;-65
2023/09/01 08:35:14;;;;;;;;;;;20.90;65.50;;;;;;5052673;28;969;-66
2023/09/01 08:37:40;;;;;;;;;;;20.90;65.20;;;;;;5053119;28;1906;-66
2023/09/01 08:40:06;;;;;;;;;;;20.90;66.10;;;;;;5052655;28;1282;-65
2023/09/01 08:42:31;;;;;;;;;;;20.90;65.20;;;;;;5053783;28;873;-66
2023/09/01 08:44:57;;;;;;;;;;;20.90;64.90;;;;;;5049203;28;806;-66
2023/09/01 08:47:23;;;;;;;;;;;20.90;65.20;;;;;;5046993;28;950;-65
2023/09/01 08:49:48;;;;;;;;;;;20.90;65.20;;;;;;5043857;28;1358;-65
2023/09/01 08:52:14;;;;;;;;;;;20.90;65.20;;;;;;5052254;28;867;-65
2023/09/01 08:54:40;;;;;;;;;;;20.90;65.20;;;;;;5045942;28;1270;-66
2023/09/01 08:57:05;;;;;;;;;;;20.90;65.50;;;;;;5049596;28;1930;-66
2023/09/01 08:59:31;;;;;;;;;;;20.90;65.40;;;;;;5033075;28;1343;-66
2023/09/01 09:01:57;;;;;;;;;;;20.90;65.30;;;;;;5046316;28;1386;-66
2023/09/01 09:04:22;;;;;;;;;;;20.90;65.50;;;;;;5050539;28;868;-66
2023/09/01 09:06:48;;;;;;;;;;;20.90;65.20;;;;;;5052091;28;951;-66
2023/09/01 09:09:15;;;;;;;;;;;20.90;64.90;;;;;;5033768;28;1264;-65
2023/09/01 09:11:56;;;;;;;;;;;20.90;64.80;;;;;;5047236;28;1298;-65
2023/09/01 09:14:22;;;;;;;;;;;20.90;64.60;;;;;;5049466;28;887;-66
2023/09/01 09:16:54;;;;;;;;;;;20.90;64.60;;;;;;5052370;28;1006;-66
2023/09/01 09:19:20;;;;;;;;;;;20.90;64.50;;;;;;5051481;28;1352;-65
2023/09/01 09:21:45;;;;;;;;;;;20.90;64.40;;;;;;5053356;28;1253;-66
2023/09/01 09:24:11;;;;;;;;;;;20.90;64.50;;;;;;5052816;28;875;-65
2023/09/01 09:26:36;;;;;;;;;;;20.90;64.60;;;;;;5053368;28;887;-66
2023/09/01 09:29:02;;;;;;;;;;;20.90;64.70;;;;;;5051848;28;889;-66
2023/09/01 09:31:28;;;;;;;;;;;20.90;64.70;;;;;;5046204;28;1345;-66
2023/09/01 09:33:54;;;;;;;;;;;20.90;64.80;;;;;;5053038;28;1077;-66
2023/09/01 09:36:30;;;;;;;;;;;20.90;64.90;;;;;;5043272;28;973;-66
2023/09/01 09:38:56;;;;;;;;;;;20.90;64.20;;;;;;5052056;28;1965;-66
2023/09/01 09:41:21;;;;;;;;;;;20.90;64.20;;;;;;5052337;28;1341;-66
2023/09/01 09:43:47;;;;;;;;;;;20.90;64.00;;;;;;5047985;28;855;-66
2023/09/01 09:46:13;;;;;;;;;;;20.90;63.90;;;;;;5052165;28;804;-66
2023/09/01 09:48:39;;;;;;;;;;;20.90;63.70;;;;;;5051622;28;815;-66
2023/09/01 09:51:07;;;;;;;;;;;20.90;64.00;;;;;;5048016;28;1286;-66
2023/09/01 09:53:32;;;;;;;;;;;20.90;64.20;;;;;;5044802;28;959;-66
2023/09/01 09:55:58;;;;;;;;;;;20.90;64.20;;;;;;5049417;28;832;-66
2023/09/01 09:58:29;;;;;;;;;;;20.90;64.00;;;;;;5044460;28;1898;-66
2023/09/01 10:01:00;;;;;;;;;;;21.00;64.00;;;;;;5052654;28;1342;-66
2023/09/01 10:03:28;;;;;;;;;;;21.00;64.00;;;;;;5045437;28;868;-66
2023/09/01 10:05:54;;;;;;;;;;;21.00;64.30;;;;;;5052686;28;928;-66
2023/09/01 10:08:20;;;;;;;;;;;21.00;64.30;;;;;;5055764;28;1218;-66
2023/09/01 10:10:46;;;;;;;;;;;21.00;64.40;;;;;;5050247;28;1270;-66
2023/09/01 10:13:12;;;;;;;;;;;21.00;64.50;;;;;;5046742;28;824;-66
2023/09/01 10:15:37;;;;;;;;;;;21.00;64.50;;;;;;5043559;28;1356;-66
2023/09/01 10:18:03;;;;;;;;;;;21.00;64.60;;;;;;5051038;28;1902;-66
2023/09/01 10:20:30;;;;;;;;;;;21.00;64.60;;;;;;5051735;28;1435;-66
2023/09/01 10:22:56;;;;;;;;;;;21.00;64.50;;;;;;5051245;28;857;-66
2023/09/01 10:25:22;;;;;;;;;;;21.00;64.10;;;;;;5043607;28;799;-66
2023/09/01 10:28:08;;;;;;;;;;;21.00;64.10;;;;;;5049824;28;1314;-66
2023/09/01 10:30:40;;;;;;;;;;;21.00;64.20;;;;;;5049838;28;1353;-66
2023/09/01 10:33:10;;;;;;;;;;;21.00;64.10;;;;;;5043836;28;1404;-67
2023/09/01 10:35:41;;;;;;;;;;;21.00;64.00;;;;;;5050916;28;1337;-67
2023/09/01 10:38:10;;;;;;;;;;;21.00;64.00;;;;;;5049443;28;1988;-67
2023/09/01 10:40:42;;;;;;;;;;;21.00;64.10;;;;;;5049825;28;1532;-67
2023/09/01 10:43:08;;;;;;;;;;;21.00;64.10;;;;;;5046884;28;1366;-67
2023/09/01 10:45:35;;;;;;;;;;;21.00;64.10;;;;;;5046082;28;1393;-67
2023/09/01 10:48:00;;;;;;;;;;;21.00;64.20;;;;;;5046326;28;1454;-66
2023/09/01 10:50:26;;;;;;;;;;;21.00;64.20;;;;;;5050494;28;1369;-67
2023/09/01 10:53:10;;;;;;;;;;;21.00;64.20;;;;;;5047792;28;1347;-66
2023/09/01 10:55:55;;;;;;;;;;;21.00;63.90;;;;;;5050109;28;1943;-66
2023/09/01 10:58:21;;;;;;;;;;;21.00;64.00;;;;;;5048905;28;1894;-66
2023/09/01 11:00:49;;;;;;;;;;;21.00;63.10;;;;;;5049785;28;1999;-66
2023/09/01 11:03:30;;;;;;;;;;;21.00;62.30;;;;;;5044192;28;1997;-66
2023/09/01 11:06:04;;;;;;;;;;;21.00;62.60;;;;;;5043314;28;1483;-66
2023/09/01 11:08:31;;;;;;;;;;;21.00;62.40;;;;;;5048469;28;1023;-66
2023/09/01 11:11:05;;;;;;;;;;;21.00;62.50;;;;;;5050066;28;1339;-66
2023/09/01 11:13:31;;;;;;;;;;;21.00;62.80;;;;;;5050444;28;1595;-66
2023/09/01 11:15:56;;;;;;;;;;;21.00;62.80;;;;;;5049601;28;990;-66
2023/09/01 11:18:22;;;;;;;;;;;21.00;62.80;;;;;;5047787;28;1985;-66
2023/09/01 11:20:48;;;;;;;;;;;21.00;63.00;;;;;;5049738;28;1289;-66
2023/09/01 11:23:23;;;;;;;;;;;21.10;63.20;;;;;;5050005;28;800;-66
2023/09/01 11:25:57;;;;;;;;;;;21.00;62.90;;;;;;5041087;28;1304;-66
2023/09/01 11:28:23;;;;;;;;;;;21.10;63.10;;;;;;5043385;28;1356;-66
2023/09/01 11:30:52;;;;;;;;;;;21.00;63.10;;;;;;5043053;28;1733;-66
2023/09/01 11:33:19;;;;;;;;;;;21.00;62.80;;;;;;5050002;28;852;-66
2023/09/01 11:35:44;;;;;;;;;;;21.10;62.90;;;;;;5050272;28;903;-66
2023/09/01 11:38:16;;;;;;;;;;;21.10;62.60;;;;;;5049249;28;1930;-66
2023/09/01 11:40:41;;;;;;;;;;;21.10;62.70;;;;;;5049291;28;1300;-66
2023/09/01 11:43:08;;;;;;;;;;;21.10;62.80;;;;;;5050164;28;796;-66
2023/09/01 11:45:33;;;;;;;;;;;21.10;62.40;;;;;;5048486;28;868;-66
2023/09/01 11:47:59;;;;;;;;;;;21.10;62.40;;;;;;5049909;28;865;-66
2023/09/01 11:50:24;;;;;;;;;;;21.10;62.60;;;;;;5050654;28;1279;-66
2023/09/01 11:52:51;;;;;;;;;;;21.10;62.70;;;;;;5039742;28;887;-66
2023/09/01 11:55:32;;;;;;;;;;;21.10;62.80;;;;;;5043559;28;891;-66
2023/09/01 11:57:58;;;;;;;;;;;21.10;62.50;;;;;;5041063;28;1894;-66
2023/09/01 12:00:34;;;;;;;;;;;21.10;62.40;;;;;;5049642;28;1282;-66
2023/09/01 12:03:00;;;;;;;;;;;21.10;62.50;;;;;;5044148;28;816;-66
2023/09/01 12:05:29;;;;;;;;;;;21.10;62.20;;;;;;5042806;28;812;-66
2023/09/01 12:07:54;;;;;;;;;;;21.10;62.50;;;;;;5041892;28;907;-65
2023/09/01 12:10:24;;;;;;;;;;;21.10;62.80;;;;;;5049955;28;1243;-65
2023/09/01 12:12:49;;;;;;;;;;;21.10;63.20;;;;;;5050358;28;779;-66
2023/09/01 12:15:14;;;;;;;;;;;21.10;63.40;;;;;;5050070;28;928;-66
2023/09/01 12:17:40;;;;;;;;;;;21.10;63.30;;;;;;5048389;28;1914;-65
2023/09/01 12:20:06;;;;;;;;;;;21.10;63.00;;;;;;5047560;28;1309;-66
2023/09/01 12:22:32;;;;;;;;;;;21.10;62.20;;;;;;5050053;28;851;-65
2023/09/01 12:24:57;;;;;;;;;;;21.10;61.70;;;;;;5050253;28;1040;-65
2023/09/01 12:27:23;;;;;;;;;;;21.20;61.90;;;;;;5049950;28;1296;-66
2023/09/01 12:29:48;;;;;;;;;;;21.20;61.70;;;;;;5040775;28;1291;-66
2023/09/01 12:32:14;;;;;;;;;;;21.20;61.50;;;;;;5049976;28;972;-65
2023/09/01 12:34:40;;;;;;;;;;;21.20;62.20;;;;;;5044189;28;900;-65
2023/09/01 12:37:06;;;;;;;;;;;21.20;62.40;;;;;;5049641;28;1910;-66
2023/09/01 12:39:32;;;;;;;;;;;21.20;62.70;;;;;;5048291;28;887;-66
2023/09/01 12:41:57;;;;;;;;;;;21.20;62.90;;;;;;5043485;28;1215;-65
2023/09/01 12:44:22;;;;;;;;;;;21.20;63.00;;;;;;5043371;28;883;-65
2023/09/01 12:46:49;;;;;;;;;;;21.20;62.30;;;;;;5050090;28;809;-65
2023/09/01 12:49:15;;;;;;;;;;;21.20;61.90;;;;;;5048946;28;827;-65
2023/09/01 12:51:43;;;;;;;;;;;21.20;62.20;;;;;;5049667;28;1297;-65
2023/09/01 12:54:09;;;;;;;;;;;21.20;62.00;;;;;;5051199;28;884;-65
2023/09/01 12:56:34;;;;;;;;;;;21.20;61.20;;;;;;5049199;28;872;-66
2023/09/01 12:58:59;;;;;;;;;;;21.20;60.70;;;;;;5052471;28;1906;-66
2023/09/01 13:01:25;;;;;;;;;;;21.20;60.90;;;;;;5053095;28;1245;-66
2023/09/01 13:03:50;;;;;;;;;;;21.20;61.70;;;;;;5053337;28;966;-65
2023/09/01 13:06:16;;;;;;;;;;;21.20;62.30;;;;;;5053254;28;889;-66
2023/09/01 13:08:41;;;;;;;;;;;21.20;62.60;;;;;;5052547;28;1057;-65
2023/09/01 13:11:10;;;;;;;;;;;21.20;62.60;;;;;;5053299;28;1327;-65
2023/09/01 13:13:36;;;;;;;;;;;21.20;61.90;;;;;;5045669;28;1897;-65
2023/09/01 13:16:01;;;;;;;;;;;21.20;62.00;;;;;;5046899;28;1351;-65
2023/09/01 13:18:27;;;;;;;;;;;21.20;62.60;;;;;;5051925;28;1961;-65
2023/09/01 13:20:52;;;;;;;;;;;21.20;63.00;;;;;;5046285;28;1610;-66
2023/09/01 13:23:18;;;;;;;;;;;21.20;63.00;;;;;;5053292;28;1018;-68
2023/09/01 13:25:43;;;;;;;;;;;21.20;64.10;;;;;;5052414;28;871;-68
2023/09/01 13:28:09;;;;;;;;;;;21.20;64.20;;;;;;5051922;28;1481;-65
2023/09/01 13:30:36;;;;;;;;;;;21.20;64.30;;;;;;5049305;28;1376;-65
2023/09/01 13:33:02;;;;;;;;;;;21.20;64.40;;;;;;5052319;28;1490;-69
2023/09/01 13:35:28;;;;;;;;;;;21.20;64.50;;;;;;5047749;28;2117;-69
2023/09/01 13:37:53;;;;;;;;;;;21.20;64.50;;;;;;5052313;28;1961;-69
2023/09/01 13:40:19;;;;;;;;;;;21.20;64.60;;;;;;5052953;28;1356;-69
2023/09/01 13:42:44;;;;;;;;;;;21.20;64.70;;;;;;5051881;28;1348;-69
2023/09/01 13:45:10;;;;;;;;;;;21.20;64.70;;;;;;5051866;28;2135;-69
2023/09/01 13:47:35;;;;;;;;;;;21.20;64.70;;;;;;5050530;28;1365;-69
2023/09/01 13:50:01;;;;;;;;;;;21.20;64.70;;;;;;5051502;28;1251;-69
2023/09/01 13:52:26;;;;;;;;;;;21.20;64.40;;;;;;5051864;28;883;-69
2023/09/01 13:54:52;;;;;;;;;;;21.20;64.50;;;;;;5051990;28;1444;-69
2023/09/01 13:57:17;;;;;;;;;;;21.20;64.30;;;;;;5051854;28;1922;-69
2023/09/01 13:59:43;;;;;;;;;;;21.20;64.10;;;;;;5051059;28;1260;-69
2023/09/01 14:02:08;;;;;;;;;;;21.20;63.90;;;;;;5047738;28;875;-69
2023/09/01 14:04:34;;;;;;;;;;;21.20;63.70;;;;;;5051165;28;1026;-66
2023/09/01 14:06:59;;;;;;;;;;;21.20;63.50;;;;;;5050839;28;954;-66
2023/09/01 14:09:25;;;;;;;;;;;21.20;63.90;;;;;;5048405;28;1830;-67
2023/09/01 14:11:50;;;;;;;;;;;21.20;63.90;;;;;;5050629;28;1318;-66
2023/09/01 14:14:16;;;;;;;;;;;21.20;64.00;;;;;;5050953;28;878;-67
2023/09/01 14:16:41;;;;;;;;;;;21.20;64.30;;;;;;5051630;28;879;-65
2023/09/01 14:19:07;;;;;;;;;;;21.20;64.40;;;;;;5052003;28;1914;-66
2023/09/01 14:21:32;;;;;;;;;;;21.20;64.40;;;;;;5051509;28;1348;-66
2023/09/01 14:23:58;;;;;;;;;;;21.20;64.70;;;;;;5044797;28;847;-66
2023/09/01 14:26:25;;;;;;;;;;;21.20;64.80;;;;;;5051670;28;1190;-65
2023/09/01 14:28:50;;;;;;;;;;;21.20;64.90;;;;;;5050507;28;879;-66
2023/09/01 14:31:16;;;;;;;;;;;21.20;64.90;;;;;;5051334;28;1379;-66